createdAt,value
2018-02-15T00:00:07.414Z,1013.1
2018-02-15T00:01:09.842Z,1013.1
2018-02-15T00:02:12.576Z,1013.1
2018-02-15T00:03:15.275Z,1013.2
2018-02-15T00:04:17.703Z,1013.1
2018-02-15T00:05:20.126Z,1013
2018-02-15T00:06:22.540Z,1013
2018-02-15T00:07:24.962Z,1013
2018-02-15T00:08:27.380Z,1013
2018-02-15T00:09:29.788Z,1013
2018-02-15T00:10:32.221Z,1012.9
2018-02-15T00:11:34.922Z,1013
2018-02-15T00:12:37.336Z,1013
2018-02-15T00:13:39.764Z,1012.9
2018-02-15T00:14:42.182Z,1013.1
2018-02-15T00:15:44.603Z,1013
2018-02-15T00:16:47.021Z,1013
2018-02-15T00:17:49.436Z,1013.1
2018-02-15T00:18:51.855Z,1013
2018-02-15T00:19:54.275Z,1013
2018-02-15T00:20:56.707Z,1013
2018-02-15T00:21:59.110Z,1013
2018-02-15T00:23:01.818Z,1013
2018-02-15T00:24:04.240Z,1013
2018-02-15T00:25:06.677Z,1013
2018-02-15T00:26:09.091Z,1012.9
2018-02-15T00:27:11.512Z,1013
2018-02-15T00:28:13.928Z,1013
2018-02-15T00:29:16.359Z,1013.1
2018-02-15T00:30:18.780Z,1013
2018-02-15T00:31:21.196Z,1013.1
2018-02-15T00:32:23.612Z,1013.1
2018-02-15T00:33:26.031Z,1013.1
2018-02-15T00:34:28.453Z,1013
2018-02-15T00:35:31.152Z,1013
2018-02-15T00:36:33.557Z,1013
2018-02-15T00:37:35.973Z,1013
2018-02-15T00:38:38.392Z,1013
2018-02-15T00:39:40.811Z,1013
2018-02-15T00:40:43.232Z,1013
2018-02-15T00:41:45.652Z,1013
2018-02-15T00:42:48.073Z,1013.1
2018-02-15T00:43:50.505Z,1013
2018-02-15T00:44:52.918Z,1013
2018-02-15T00:45:55.342Z,1013
2018-02-15T00:46:57.768Z,1013
2018-02-15T00:48:00.463Z,1013
2018-02-15T00:49:02.884Z,1013
2018-02-15T00:50:05.593Z,1013
2018-02-15T00:51:08.008Z,1013
2018-02-15T00:52:10.429Z,1013
2018-02-15T00:53:12.841Z,1013
2018-02-15T00:54:15.248Z,1013
2018-02-15T00:55:17.963Z,1013
2018-02-15T00:56:20.379Z,1013
2018-02-15T00:57:22.798Z,1013
2018-02-15T00:58:25.216Z,1013
2018-02-15T00:59:27.634Z,1013
2018-02-15T01:00:30.054Z,1013
2018-02-15T01:01:32.465Z,1013
2018-02-15T01:02:34.893Z,1013
2018-02-15T01:03:37.304Z,1013
2018-02-15T01:04:40.299Z,1013
2018-02-15T01:05:42.718Z,1013
2018-02-15T01:06:45.137Z,1013
2018-02-15T01:07:47.548Z,1013
2018-02-15T01:08:49.979Z,1012.9
2018-02-15T01:09:52.388Z,1013
2018-02-15T01:10:54.813Z,1012.9
2018-02-15T01:11:57.243Z,1012.8
2018-02-15T01:12:59.658Z,1012.9
2018-02-15T01:14:02.076Z,1012.9
2018-02-15T01:15:04.782Z,1012.9
2018-02-15T01:16:07.481Z,1012.9
2018-02-15T01:17:09.903Z,1012.9
2018-02-15T01:18:12.619Z,1013
2018-02-15T01:19:15.022Z,1013
2018-02-15T01:20:17.443Z,1012.9
2018-02-15T01:21:19.858Z,1012.9
2018-02-15T01:22:22.563Z,1012.9
2018-02-15T01:23:24.981Z,1013
2018-02-15T01:24:27.693Z,1012.9
2018-02-15T01:25:30.112Z,1012.9
2018-02-15T01:26:32.544Z,1012.9
2018-02-15T01:27:35.245Z,1012.8
2018-02-15T01:28:37.666Z,1012.8
2018-02-15T01:29:40.081Z,1012.8
2018-02-15T01:30:42.492Z,1012.8
2018-02-15T01:31:44.907Z,1012.8
2018-02-15T01:32:47.323Z,1012.8
2018-02-15T01:33:50.030Z,1012.8
2018-02-15T01:34:52.456Z,1012.8
2018-02-15T01:35:54.866Z,1012.8
2018-02-15T01:36:57.290Z,1012.8
2018-02-15T01:37:59.702Z,1012.8
2018-02-15T01:39:02.128Z,1012.8
2018-02-15T01:40:04.843Z,1012.8
2018-02-15T01:41:07.255Z,1012.7
2018-02-15T01:42:09.671Z,1012.7
2018-02-15T01:43:12.099Z,1012.7
2018-02-15T01:44:14.511Z,1012.7
2018-02-15T01:45:16.926Z,1012.7
2018-02-15T01:46:19.342Z,1012.5
2018-02-15T01:47:21.753Z,1012.6
2018-02-15T01:48:24.454Z,1012.6
2018-02-15T01:49:26.866Z,1012.6
2018-02-15T01:50:29.379Z,1012.6
2018-02-15T01:51:31.795Z,1012.5
2018-02-15T01:52:34.223Z,1012.5
2018-02-15T01:53:36.629Z,1012.5
2018-02-15T01:54:39.057Z,1012.5
2018-02-15T01:55:41.471Z,1012.5
2018-02-15T01:56:43.893Z,1012.5
2018-02-15T01:57:46.316Z,1012.4
2018-02-15T01:58:49.019Z,1012.5
2018-02-15T01:59:51.705Z,1012.5
2018-02-15T02:00:54.126Z,1012.4
2018-02-15T02:01:56.540Z,1012.4
2018-02-15T02:02:58.951Z,1012.5
2018-02-15T02:04:01.374Z,1012.4
2018-02-15T02:05:03.795Z,1012.5
2018-02-15T02:06:06.500Z,1012.4
2018-02-15T02:07:08.902Z,1012.4
2018-02-15T02:08:11.324Z,1012.4
2018-02-15T02:09:13.749Z,1012.4
2018-02-15T02:10:16.165Z,1012.4
2018-02-15T02:11:18.581Z,1012.4
2018-02-15T02:12:20.995Z,1012.3
2018-02-15T02:13:23.411Z,1012.3
2018-02-15T02:14:25.842Z,1012.4
2018-02-15T02:15:28.254Z,1012.3
2018-02-15T02:16:30.953Z,1012.3
2018-02-15T02:17:33.378Z,1012.3
2018-02-15T02:18:35.794Z,1012.3
2018-02-15T02:19:38.502Z,1012.2
2018-02-15T02:20:40.923Z,1012.2
2018-02-15T02:21:43.337Z,1012.2
2018-02-15T02:22:45.760Z,1012.2
2018-02-15T02:23:48.189Z,1012.1
2018-02-15T02:24:50.589Z,1012.1
2018-02-15T02:25:53.297Z,1012.1
2018-02-15T02:26:56.002Z,1012.1
2018-02-15T02:27:58.409Z,1012
2018-02-15T02:29:00.834Z,1012
2018-02-15T02:30:03.246Z,1012
2018-02-15T02:31:05.659Z,1012
2018-02-15T02:32:08.082Z,1012
2018-02-15T02:33:10.509Z,1011.9
2018-02-15T02:34:12.938Z,1012
2018-02-15T02:35:15.338Z,1011.9
2018-02-15T02:36:17.756Z,1011.9
2018-02-15T02:37:20.175Z,1011.9
2018-02-15T02:38:22.599Z,1011.9
2018-02-15T02:39:25.316Z,1011.9
2018-02-15T02:40:28.026Z,1011.9
2018-02-15T02:41:30.440Z,1011.9
2018-02-15T02:42:33.152Z,1011.9
2018-02-15T02:43:36.151Z,1011.8
2018-02-15T02:44:38.560Z,1011.9
2018-02-15T02:45:40.979Z,1011.9
2018-02-15T02:46:43.390Z,1011.9
2018-02-15T02:47:45.821Z,1011.9
2018-02-15T02:48:48.288Z,1011.9
2018-02-15T02:49:50.934Z,1012
2018-02-15T02:50:53.358Z,1012
2018-02-15T02:51:55.781Z,1011.9
2018-02-15T02:52:58.200Z,1011.9
2018-02-15T02:54:00.609Z,1011.9
2018-02-15T02:55:03.028Z,1011.9
2018-02-15T02:56:05.434Z,1011.9
2018-02-15T02:57:07.867Z,1011.9
2018-02-15T02:58:10.576Z,1011.9
2018-02-15T02:59:12.985Z,1011.9
2018-02-15T03:00:15.408Z,1011.9
2018-02-15T03:01:18.127Z,1012
2018-02-15T03:02:20.545Z,1011.9
2018-02-15T03:03:23.255Z,1011.9
2018-02-15T03:04:25.669Z,1011.9
2018-02-15T03:05:28.088Z,1011.9
2018-02-15T03:06:30.775Z,1011.9
2018-02-15T03:07:33.190Z,1011.9
2018-02-15T03:08:35.609Z,1011.9
2018-02-15T03:09:38.310Z,1011.8
2018-02-15T03:10:40.733Z,1011.8
2018-02-15T03:11:43.146Z,1011.8
2018-02-15T03:12:45.850Z,1011.8
2018-02-15T03:13:48.265Z,1011.8
2018-02-15T03:14:50.986Z,1011.8
2018-02-15T03:15:53.398Z,1011.8
2018-02-15T03:16:55.821Z,1011.8
2018-02-15T03:17:58.236Z,1011.8
2018-02-15T03:19:00.989Z,1011.8
2018-02-15T03:20:03.411Z,1011.8
2018-02-15T03:21:06.099Z,1011.8
2018-02-15T03:22:08.523Z,1011.8
2018-02-15T03:23:10.942Z,1011.8
2018-02-15T03:24:13.352Z,1011.8
2018-02-15T03:25:15.776Z,1011.8
2018-02-15T03:26:18.189Z,1011.8
2018-02-15T03:27:20.611Z,1011.8
2018-02-15T03:28:23.032Z,1011.8
2018-02-15T03:29:25.449Z,1011.8
2018-02-15T03:30:28.147Z,1011.7
2018-02-15T03:31:30.559Z,1011.7
2018-02-15T03:32:32.996Z,1011.8
2018-02-15T03:33:35.414Z,1011.7
2018-02-15T03:34:37.824Z,1011.7
2018-02-15T03:35:40.245Z,1011.8
2018-02-15T03:36:42.658Z,1011.6
2018-02-15T03:37:45.080Z,1011.6
2018-02-15T03:38:47.504Z,1011.7
2018-02-15T03:39:49.920Z,1011.7
2018-02-15T03:40:52.342Z,1011.7
2018-02-15T03:41:55.049Z,1011.7
2018-02-15T03:42:57.465Z,1011.7
2018-02-15T03:43:59.879Z,1011.8
2018-02-15T03:45:02.581Z,1011.7
2018-02-15T03:46:04.998Z,1011.8
2018-02-15T03:47:07.713Z,1011.7
2018-02-15T03:48:10.137Z,1011.7
2018-02-15T03:49:12.552Z,1011.7
2018-02-15T03:50:14.967Z,1011.7
2018-02-15T03:51:17.381Z,1011.7
2018-02-15T03:52:19.801Z,1011.6
2018-02-15T03:53:22.220Z,1011.6
2018-02-15T03:54:24.631Z,1011.6
2018-02-15T03:55:27.042Z,1011.6
2018-02-15T03:56:29.477Z,1011.6
2018-02-15T03:57:32.459Z,1011.5
2018-02-15T03:58:34.879Z,1011.5
2018-02-15T03:59:37.289Z,1011.5
2018-02-15T04:00:39.707Z,1011.6
2018-02-15T04:01:42.124Z,1011.6
2018-02-15T04:02:44.536Z,1011.6
2018-02-15T04:03:47.243Z,1011.6
2018-02-15T04:04:49.666Z,1011.5
2018-02-15T04:05:52.069Z,1011.6
2018-02-15T04:06:55.077Z,1011.5
2018-02-15T04:07:57.489Z,1011.6
2018-02-15T04:08:59.908Z,1011.6
2018-02-15T04:10:02.327Z,1011.5
2018-02-15T04:11:04.736Z,1011.5
2018-02-15T04:12:07.145Z,1011.5
2018-02-15T04:13:09.571Z,1011.5
2018-02-15T04:14:12.267Z,1011.5
2018-02-15T04:15:14.976Z,1011.5
2018-02-15T04:16:17.395Z,1011.5
2018-02-15T04:17:19.814Z,1011.5
2018-02-15T04:18:22.517Z,1011.5
2018-02-15T04:19:25.506Z,1011.5
2018-02-15T04:20:27.914Z,1011.4
2018-02-15T04:21:30.648Z,1011.5
2018-02-15T04:22:33.049Z,1011.4
2018-02-15T04:23:35.476Z,1011.4
2018-02-15T04:24:37.884Z,1011.4
2018-02-15T04:25:40.300Z,1011.4
2018-02-15T04:26:42.727Z,1011.3
2018-02-15T04:27:45.149Z,1011.3
2018-02-15T04:28:47.559Z,1011.3
2018-02-15T04:29:49.971Z,1011.3
2018-02-15T04:30:52.385Z,1011.2
2018-02-15T04:31:55.075Z,1011.3
2018-02-15T04:32:57.497Z,1011.2
2018-02-15T04:33:59.919Z,1011.2
2018-02-15T04:35:02.333Z,1011.2
2018-02-15T04:36:04.755Z,1011.2
2018-02-15T04:37:07.175Z,1011.2
2018-02-15T04:38:09.591Z,1011.2
2018-02-15T04:39:12.600Z,1011.2
2018-02-15T04:40:15.017Z,1011.1
2018-02-15T04:41:17.424Z,1011.1
2018-02-15T04:42:19.845Z,1011.1
2018-02-15T04:43:22.261Z,1011.1
2018-02-15T04:44:24.675Z,1011.1
2018-02-15T04:45:27.100Z,1011
